sensor_id;sensor_type;location;lat;lon;timestamp;temperature;humidity
68924;DHT22;55961;52.156;20.942;2023-05-28T00:01:21;12.70;48.80
68924;DHT22;55961;52.156;20.942;2023-05-28T00:03:51;12.70;48.80
68924;DHT22;55961;52.156;20.942;2023-05-28T00:06:17;12.70;49.00
68924;DHT22;55961;52.156;20.942;2023-05-28T00:08:43;12.60;49.20
68924;DHT22;55961;52.156;20.942;2023-05-28T00:11:09;12.60;49.30
68924;DHT22;55961;52.156;20.942;2023-05-28T00:13:35;12.50;49.60
68924;DHT22;55961;52.156;20.942;2023-05-28T00:16:01;12.50;49.80
68924;DHT22;55961;52.156;20.942;2023-05-28T00:18:27;12.40;49.70
68924;DHT22;55961;52.156;20.942;2023-05-28T00:20:54;12.40;49.60
68924;DHT22;55961;52.156;20.942;2023-05-28T00:23:20;12.30;49.50
68924;DHT22;55961;52.156;20.942;2023-05-28T00:25:46;12.30;50.00
68924;DHT22;55961;52.156;20.942;2023-05-28T00:28:12;12.30;50.20
68924;DHT22;55961;52.156;20.942;2023-05-28T00:30:38;12.20;50.20
68924;DHT22;55961;52.156;20.942;2023-05-28T00:33:04;12.20;50.20
68924;DHT22;55961;52.156;20.942;2023-05-28T00:35:30;12.20;50.40
68924;DHT22;55961;52.156;20.942;2023-05-28T00:37:56;12.10;50.70
68924;DHT22;55961;52.156;20.942;2023-05-28T00:40:22;12.10;50.80
68924;DHT22;55961;52.156;20.942;2023-05-28T00:42:48;12.10;50.40
68924;DHT22;55961;52.156;20.942;2023-05-28T00:45:14;12.00;50.40
68924;DHT22;55961;52.156;20.942;2023-05-28T00:47:41;12.00;50.40
68924;DHT22;55961;52.156;20.942;2023-05-28T00:50:08;11.90;50.30
68924;DHT22;55961;52.156;20.942;2023-05-28T00:52:37;11.90;50.60
68924;DHT22;55961;52.156;20.942;2023-05-28T00:55:12;11.80;50.80
68924;DHT22;55961;52.156;20.942;2023-05-28T00:57:39;11.80;50.90
68924;DHT22;55961;52.156;20.942;2023-05-28T01:00:06;11.80;50.70
68924;DHT22;55961;52.156;20.942;2023-05-28T01:02:32;11.80;50.80
68924;DHT22;55961;52.156;20.942;2023-05-28T01:04:58;11.70;50.60
68924;DHT22;55961;52.156;20.942;2023-05-28T01:07:24;11.70;50.70
68924;DHT22;55961;52.156;20.942;2023-05-28T01:09:50;11.70;50.80
68924;DHT22;55961;52.156;20.942;2023-05-28T01:12:16;11.60;50.80
68924;DHT22;55961;52.156;20.942;2023-05-28T01:14:43;11.60;50.90
68924;DHT22;55961;52.156;20.942;2023-05-28T01:17:10;11.60;51.00
68924;DHT22;55961;52.156;20.942;2023-05-28T01:19:36;11.60;50.90
68924;DHT22;55961;52.156;20.942;2023-05-28T01:22:04;11.50;51.00
68924;DHT22;55961;52.156;20.942;2023-05-28T01:24:33;11.50;51.30
68924;DHT22;55961;52.156;20.942;2023-05-28T01:27:01;11.50;51.50
68924;DHT22;55961;52.156;20.942;2023-05-28T01:29:27;11.40;51.70
68924;DHT22;55961;52.156;20.942;2023-05-28T01:31:54;11.40;52.10
68924;DHT22;55961;52.156;20.942;2023-05-28T01:34:20;11.40;52.10
68924;DHT22;55961;52.156;20.942;2023-05-28T01:36:56;11.30;52.00
68924;DHT22;55961;52.156;20.942;2023-05-28T01:39:27;11.30;52.10
68924;DHT22;55961;52.156;20.942;2023-05-28T01:41:55;11.30;52.20
68924;DHT22;55961;52.156;20.942;2023-05-28T01:44:23;11.20;52.10
68924;DHT22;55961;52.156;20.942;2023-05-28T01:46:50;11.20;52.00
68924;DHT22;55961;52.156;20.942;2023-05-28T01:49:21;11.10;52.20
68924;DHT22;55961;52.156;20.942;2023-05-28T01:51:50;11.10;52.20
68924;DHT22;55961;52.156;20.942;2023-05-28T01:54:16;11.10;52.50
68924;DHT22;55961;52.156;20.942;2023-05-28T01:56:42;11.00;52.90
68924;DHT22;55961;52.156;20.942;2023-05-28T01:59:08;11.00;53.00
68924;DHT22;55961;52.156;20.942;2023-05-28T02:01:34;11.00;53.20
68924;DHT22;55961;52.156;20.942;2023-05-28T02:04:01;10.90;53.40
68924;DHT22;55961;52.156;20.942;2023-05-28T02:06:30;10.90;53.70
68924;DHT22;55961;52.156;20.942;2023-05-28T02:08:56;10.80;54.00
68924;DHT22;55961;52.156;20.942;2023-05-28T02:11:22;10.70;54.00
68924;DHT22;55961;52.156;20.942;2023-05-28T02:13:48;10.70;53.90
68924;DHT22;55961;52.156;20.942;2023-05-28T02:16:15;10.70;53.90
68924;DHT22;55961;52.156;20.942;2023-05-28T02:18:44;10.60;53.90
68924;DHT22;55961;52.156;20.942;2023-05-28T02:21:14;10.60;53.90
68924;DHT22;55961;52.156;20.942;2023-05-28T02:23:44;10.60;54.00
68924;DHT22;55961;52.156;20.942;2023-05-28T02:26:11;10.60;53.90
68924;DHT22;55961;52.156;20.942;2023-05-28T02:28:37;10.60;54.10
68924;DHT22;55961;52.156;20.942;2023-05-28T02:31:03;10.60;54.10
68924;DHT22;55961;52.156;20.942;2023-05-28T02:33:29;10.50;54.20
68924;DHT22;55961;52.156;20.942;2023-05-28T02:35:55;10.50;54.40
68924;DHT22;55961;52.156;20.942;2023-05-28T02:38:21;10.50;54.80
68924;DHT22;55961;52.156;20.942;2023-05-28T02:40:47;10.40;55.00
68924;DHT22;55961;52.156;20.942;2023-05-28T02:43:13;10.50;55.10
68924;DHT22;55961;52.156;20.942;2023-05-28T02:45:39;10.40;55.10
68924;DHT22;55961;52.156;20.942;2023-05-28T02:48:05;10.40;55.20
68924;DHT22;55961;52.156;20.942;2023-05-28T02:50:31;10.30;55.30
68924;DHT22;55961;52.156;20.942;2023-05-28T02:52:57;10.30;55.60
68924;DHT22;55961;52.156;20.942;2023-05-28T02:55:23;10.30;55.80
68924;DHT22;55961;52.156;20.942;2023-05-28T02:57:49;10.30;56.10
68924;DHT22;55961;52.156;20.942;2023-05-28T03:00:15;10.30;56.30
68924;DHT22;55961;52.156;20.942;2023-05-28T03:02:41;10.20;56.30
68924;DHT22;55961;52.156;20.942;2023-05-28T03:05:07;10.20;56.40
68924;DHT22;55961;52.156;20.942;2023-05-28T03:07:33;10.20;56.50
68924;DHT22;55961;52.156;20.942;2023-05-28T03:09:59;10.20;56.40
68924;DHT22;55961;52.156;20.942;2023-05-28T03:12:25;10.20;56.30
68924;DHT22;55961;52.156;20.942;2023-05-28T03:14:51;10.20;56.60
68924;DHT22;55961;52.156;20.942;2023-05-28T03:17:17;10.10;56.50
68924;DHT22;55961;52.156;20.942;2023-05-28T03:19:43;10.10;56.70
68924;DHT22;55961;52.156;20.942;2023-05-28T03:22:08;10.10;56.60
68924;DHT22;55961;52.156;20.942;2023-05-28T03:24:34;10.20;56.90
68924;DHT22;55961;52.156;20.942;2023-05-28T03:27:01;10.20;57.20
68924;DHT22;55961;52.156;20.942;2023-05-28T03:29:27;10.20;57.40
68924;DHT22;55961;52.156;20.942;2023-05-28T03:31:53;10.20;57.40
68924;DHT22;55961;52.156;20.942;2023-05-28T03:34:19;10.20;57.40
68924;DHT22;55961;52.156;20.942;2023-05-28T03:36:46;10.20;57.50
68924;DHT22;55961;52.156;20.942;2023-05-28T03:39:12;10.20;57.60
68924;DHT22;55961;52.156;20.942;2023-05-28T03:41:38;10.20;57.50
68924;DHT22;55961;52.156;20.942;2023-05-28T03:44:04;10.20;57.20
68924;DHT22;55961;52.156;20.942;2023-05-28T03:46:31;10.30;57.10
68924;DHT22;55961;52.156;20.942;2023-05-28T03:48:57;10.30;57.00
68924;DHT22;55961;52.156;20.942;2023-05-28T03:51:23;10.30;56.90
68924;DHT22;55961;52.156;20.942;2023-05-28T03:53:50;10.40;56.90
68924;DHT22;55961;52.156;20.942;2023-05-28T03:56:16;10.40;57.20
68924;DHT22;55961;52.156;20.942;2023-05-28T03:58:42;10.40;57.20
68924;DHT22;55961;52.156;20.942;2023-05-28T04:01:08;10.50;56.70
68924;DHT22;55961;52.156;20.942;2023-05-28T04:03:35;10.50;56.70
68924;DHT22;55961;52.156;20.942;2023-05-28T04:06:01;10.60;56.30
68924;DHT22;55961;52.156;20.942;2023-05-28T04:08:28;10.60;56.10
68924;DHT22;55961;52.156;20.942;2023-05-28T04:10:54;10.70;55.90
68924;DHT22;55961;52.156;20.942;2023-05-28T04:13:20;10.70;56.00
68924;DHT22;55961;52.156;20.942;2023-05-28T04:15:46;10.80;55.70
68924;DHT22;55961;52.156;20.942;2023-05-28T04:18:12;10.90;55.50
68924;DHT22;55961;52.156;20.942;2023-05-28T04:20:38;10.90;54.90
68924;DHT22;55961;52.156;20.942;2023-05-28T04:23:04;11.00;54.80
68924;DHT22;55961;52.156;20.942;2023-05-28T04:25:30;11.10;54.80
68924;DHT22;55961;52.156;20.942;2023-05-28T04:27:56;11.20;55.50
68924;DHT22;55961;52.156;20.942;2023-05-28T04:30:23;11.30;55.10
68924;DHT22;55961;52.156;20.942;2023-05-28T04:32:50;11.40;54.60
68924;DHT22;55961;52.156;20.942;2023-05-28T04:35:18;11.50;55.70
68924;DHT22;55961;52.156;20.942;2023-05-28T04:37:45;11.60;55.40
68924;DHT22;55961;52.156;20.942;2023-05-28T04:40:11;11.70;54.70
68924;DHT22;55961;52.156;20.942;2023-05-28T04:42:40;11.90;55.50
68924;DHT22;55961;52.156;20.942;2023-05-28T04:45:10;12.00;54.10
68924;DHT22;55961;52.156;20.942;2023-05-28T04:47:37;12.10;52.60
68924;DHT22;55961;52.156;20.942;2023-05-28T04:50:04;12.20;52.40
68924;DHT22;55961;52.156;20.942;2023-05-28T04:52:30;12.30;52.30
68924;DHT22;55961;52.156;20.942;2023-05-28T04:54:58;12.40;52.00
68924;DHT22;55961;52.156;20.942;2023-05-28T04:57:24;12.50;51.30
68924;DHT22;55961;52.156;20.942;2023-05-28T04:59:51;12.60;51.00
68924;DHT22;55961;52.156;20.942;2023-05-28T05:02:17;12.80;50.60
68924;DHT22;55961;52.156;20.942;2023-05-28T05:04:44;12.90;50.20
68924;DHT22;55961;52.156;20.942;2023-05-28T05:07:14;13.00;49.90
68924;DHT22;55961;52.156;20.942;2023-05-28T05:09:40;13.10;49.50
68924;DHT22;55961;52.156;20.942;2023-05-28T05:12:07;13.20;49.70
68924;DHT22;55961;52.156;20.942;2023-05-28T05:14:34;13.30;49.20
68924;DHT22;55961;52.156;20.942;2023-05-28T05:17:00;13.40;49.50
68924;DHT22;55961;52.156;20.942;2023-05-28T05:19:27;13.60;49.20
68924;DHT22;55961;52.156;20.942;2023-05-28T05:21:53;13.70;48.20
68924;DHT22;55961;52.156;20.942;2023-05-28T05:24:18;13.80;48.70
68924;DHT22;55961;52.156;20.942;2023-05-28T05:26:44;13.90;48.10
68924;DHT22;55961;52.156;20.942;2023-05-28T05:29:10;14.00;47.60
68924;DHT22;55961;52.156;20.942;2023-05-28T05:31:37;14.20;47.10
68924;DHT22;55961;52.156;20.942;2023-05-28T05:34:02;14.30;46.70
68924;DHT22;55961;52.156;20.942;2023-05-28T05:36:30;14.40;46.50
68924;DHT22;55961;52.156;20.942;2023-05-28T05:38:56;14.60;46.50
68924;DHT22;55961;52.156;20.942;2023-05-28T05:41:22;14.70;45.30
68924;DHT22;55961;52.156;20.942;2023-05-28T05:43:48;14.90;45.20
68924;DHT22;55961;52.156;20.942;2023-05-28T05:46:14;15.00;44.70
68924;DHT22;55961;52.156;20.942;2023-05-28T05:48:40;15.10;44.40
68924;DHT22;55961;52.156;20.942;2023-05-28T05:51:06;15.20;43.80
68924;DHT22;55961;52.156;20.942;2023-05-28T05:53:32;15.30;43.70
68924;DHT22;55961;52.156;20.942;2023-05-28T05:55:58;15.40;43.60
68924;DHT22;55961;52.156;20.942;2023-05-28T05:58:24;15.50;43.40
68924;DHT22;55961;52.156;20.942;2023-05-28T06:00:50;15.60;43.50
68924;DHT22;55961;52.156;20.942;2023-05-28T06:03:17;15.70;44.60
68924;DHT22;55961;52.156;20.942;2023-05-28T06:05:43;15.80;44.60
68924;DHT22;55961;52.156;20.942;2023-05-28T06:08:09;16.00;44.30
68924;DHT22;55961;52.156;20.942;2023-05-28T06:10:35;16.10;43.50
68924;DHT22;55961;52.156;20.942;2023-05-28T06:13:01;16.20;43.10
68924;DHT22;55961;52.156;20.942;2023-05-28T06:15:28;16.40;43.30
68924;DHT22;55961;52.156;20.942;2023-05-28T06:17:55;16.50;43.30
68924;DHT22;55961;52.156;20.942;2023-05-28T06:20:22;16.70;43.70
68924;DHT22;55961;52.156;20.942;2023-05-28T06:22:47;16.80;43.90
68924;DHT22;55961;52.156;20.942;2023-05-28T06:25:14;17.00;43.50
68924;DHT22;55961;52.156;20.942;2023-05-28T06:27:40;17.10;42.80
68924;DHT22;55961;52.156;20.942;2023-05-28T06:30:07;17.30;42.20
68924;DHT22;55961;52.156;20.942;2023-05-28T06:32:33;17.50;42.10
68924;DHT22;55961;52.156;20.942;2023-05-28T06:35:00;17.60;41.90
68924;DHT22;55961;52.156;20.942;2023-05-28T06:37:26;17.70;41.20
68924;DHT22;55961;52.156;20.942;2023-05-28T06:39:52;17.90;41.30
68924;DHT22;55961;52.156;20.942;2023-05-28T06:42:18;18.00;40.90
68924;DHT22;55961;52.156;20.942;2023-05-28T06:44:44;18.10;41.40
68924;DHT22;55961;52.156;20.942;2023-05-28T06:47:10;18.30;40.90
68924;DHT22;55961;52.156;20.942;2023-05-28T06:49:36;18.40;40.00
68924;DHT22;55961;52.156;20.942;2023-05-28T06:52:02;18.50;39.80
68924;DHT22;55961;52.156;20.942;2023-05-28T06:54:28;18.60;38.10
68924;DHT22;55961;52.156;20.942;2023-05-28T06:56:54;18.80;38.50
68924;DHT22;55961;52.156;20.942;2023-05-28T06:59:20;18.80;37.90
68924;DHT22;55961;52.156;20.942;2023-05-28T07:01:46;18.90;37.40
68924;DHT22;55961;52.156;20.942;2023-05-28T07:04:12;19.00;37.30
68924;DHT22;55961;52.156;20.942;2023-05-28T07:06:38;19.00;37.20
68924;DHT22;55961;52.156;20.942;2023-05-28T07:09:04;19.10;38.50
68924;DHT22;55961;52.156;20.942;2023-05-28T07:11:30;19.20;38.00
68924;DHT22;55961;52.156;20.942;2023-05-28T07:13:56;19.30;37.50
68924;DHT22;55961;52.156;20.942;2023-05-28T07:16:22;19.40;36.00
68924;DHT22;55961;52.156;20.942;2023-05-28T07:18:48;19.50;36.60
68924;DHT22;55961;52.156;20.942;2023-05-28T07:21:17;19.60;36.20
68924;DHT22;55961;52.156;20.942;2023-05-28T07:23:43;19.70;36.20
68924;DHT22;55961;52.156;20.942;2023-05-28T07:26:09;19.80;36.00
68924;DHT22;55961;52.156;20.942;2023-05-28T07:28:36;19.90;36.30
68924;DHT22;55961;52.156;20.942;2023-05-28T07:31:02;20.00;35.90
68924;DHT22;55961;52.156;20.942;2023-05-28T07:33:28;20.20;36.10
68924;DHT22;55961;52.156;20.942;2023-05-28T07:35:54;20.30;36.30
68924;DHT22;55961;52.156;20.942;2023-05-28T07:38:20;20.40;35.90
68924;DHT22;55961;52.156;20.942;2023-05-28T07:40:46;20.60;35.40
68924;DHT22;55961;52.156;20.942;2023-05-28T07:43:14;20.70;33.90
68924;DHT22;55961;52.156;20.942;2023-05-28T07:45:39;20.80;34.60
68924;DHT22;55961;52.156;20.942;2023-05-28T07:48:06;21.00;33.40
68924;DHT22;55961;52.156;20.942;2023-05-28T07:50:32;21.10;34.20
68924;DHT22;55961;52.156;20.942;2023-05-28T07:52:58;21.20;33.50
68924;DHT22;55961;52.156;20.942;2023-05-28T07:55:23;21.30;34.00
68924;DHT22;55961;52.156;20.942;2023-05-28T07:57:50;21.40;33.70
68924;DHT22;55961;52.156;20.942;2023-05-28T08:00:16;21.60;33.00
68924;DHT22;55961;52.156;20.942;2023-05-28T08:02:43;21.70;32.60
68924;DHT22;55961;52.156;20.942;2023-05-28T08:05:09;21.80;32.60
68924;DHT22;55961;52.156;20.942;2023-05-28T08:07:36;21.90;32.20
68924;DHT22;55961;52.156;20.942;2023-05-28T08:10:02;21.90;32.00
68924;DHT22;55961;52.156;20.942;2023-05-28T08:12:29;21.90;32.30
68924;DHT22;55961;52.156;20.942;2023-05-28T08:14:54;22.00;32.90
68924;DHT22;55961;52.156;20.942;2023-05-28T08:17:21;22.00;32.30
68924;DHT22;55961;52.156;20.942;2023-05-28T08:19:49;22.00;32.50
68924;DHT22;55961;52.156;20.942;2023-05-28T08:22:15;22.10;32.40
68924;DHT22;55961;52.156;20.942;2023-05-28T08:24:41;22.10;31.80
68924;DHT22;55961;52.156;20.942;2023-05-28T08:27:07;22.10;32.10
68924;DHT22;55961;52.156;20.942;2023-05-28T08:29:33;22.10;32.40
68924;DHT22;55961;52.156;20.942;2023-05-28T08:31:59;22.10;32.70
68924;DHT22;55961;52.156;20.942;2023-05-28T08:34:26;22.20;33.40
68924;DHT22;55961;52.156;20.942;2023-05-28T08:36:52;22.30;33.00
68924;DHT22;55961;52.156;20.942;2023-05-28T08:39:18;22.30;31.90
68924;DHT22;55961;52.156;20.942;2023-05-28T08:41:44;22.20;31.60
68924;DHT22;55961;52.156;20.942;2023-05-28T08:44:10;22.20;32.70
68924;DHT22;55961;52.156;20.942;2023-05-28T08:46:36;22.20;33.00
68924;DHT22;55961;52.156;20.942;2023-05-28T08:49:03;22.30;32.60
68924;DHT22;55961;52.156;20.942;2023-05-28T08:51:33;22.40;32.20
68924;DHT22;55961;52.156;20.942;2023-05-28T08:54:02;22.40;32.30
68924;DHT22;55961;52.156;20.942;2023-05-28T08:56:28;22.40;32.80
68924;DHT22;55961;52.156;20.942;2023-05-28T08:58:54;22.50;33.50
68924;DHT22;55961;52.156;20.942;2023-05-28T09:01:21;22.50;32.40
68924;DHT22;55961;52.156;20.942;2023-05-28T09:03:47;22.60;32.40
68924;DHT22;55961;52.156;20.942;2023-05-28T09:06:13;22.70;32.40
68924;DHT22;55961;52.156;20.942;2023-05-28T09:08:40;22.80;32.00
68924;DHT22;55961;52.156;20.942;2023-05-28T09:11:13;22.90;31.90
68924;DHT22;55961;52.156;20.942;2023-05-28T09:13:47;23.10;31.40
68924;DHT22;55961;52.156;20.942;2023-05-28T09:16:21;23.20;31.80
68924;DHT22;55961;52.156;20.942;2023-05-28T09:18:51;23.20;31.60
68924;DHT22;55961;52.156;20.942;2023-05-28T09:21:19;23.20;31.40
68924;DHT22;55961;52.156;20.942;2023-05-28T09:23:50;23.30;31.90
68924;DHT22;55961;52.156;20.942;2023-05-28T09:26:16;23.40;31.00
68924;DHT22;55961;52.156;20.942;2023-05-28T09:28:45;23.50;31.80
68924;DHT22;55961;52.156;20.942;2023-05-28T09:31:11;23.60;31.20
68924;DHT22;55961;52.156;20.942;2023-05-28T09:33:47;23.70;31.60
68924;DHT22;55961;52.156;20.942;2023-05-28T09:36:17;23.90;31.20
68924;DHT22;55961;52.156;20.942;2023-05-28T09:38:43;24.10;32.00
68924;DHT22;55961;52.156;20.942;2023-05-28T09:41:26;24.30;30.80
68924;DHT22;55961;52.156;20.942;2023-05-28T09:44:00;24.50;30.60
68924;DHT22;55961;52.156;20.942;2023-05-28T09:46:28;24.80;30.00
68924;DHT22;55961;52.156;20.942;2023-05-28T09:48:54;24.90;29.60
68924;DHT22;55961;52.156;20.942;2023-05-28T09:51:23;24.90;29.80
68924;DHT22;55961;52.156;20.942;2023-05-28T09:53:55;24.90;30.60
68924;DHT22;55961;52.156;20.942;2023-05-28T09:56:27;25.00;29.90
68924;DHT22;55961;52.156;20.942;2023-05-28T09:58:57;25.00;29.40
68924;DHT22;55961;52.156;20.942;2023-05-28T10:01:30;25.00;29.80
68924;DHT22;55961;52.156;20.942;2023-05-28T10:04:02;25.20;29.50
68924;DHT22;55961;52.156;20.942;2023-05-28T10:06:30;25.30;29.50
68924;DHT22;55961;52.156;20.942;2023-05-28T10:08:59;25.50;30.40
68924;DHT22;55961;52.156;20.942;2023-05-28T10:11:27;25.70;30.40
68924;DHT22;55961;52.156;20.942;2023-05-28T10:13:56;25.90;30.50
68924;DHT22;55961;52.156;20.942;2023-05-28T10:16:23;26.10;29.50
68924;DHT22;55961;52.156;20.942;2023-05-28T10:18:51;26.20;29.50
68924;DHT22;55961;52.156;20.942;2023-05-28T10:21:18;26.30;28.80
68924;DHT22;55961;52.156;20.942;2023-05-28T10:23:46;26.20;28.70
68924;DHT22;55961;52.156;20.942;2023-05-28T10:26:14;26.10;28.50
68924;DHT22;55961;52.156;20.942;2023-05-28T10:28:40;25.90;29.40
68924;DHT22;55961;52.156;20.942;2023-05-28T10:31:08;26.00;29.00
68924;DHT22;55961;52.156;20.942;2023-05-28T10:33:44;26.00;29.70
68924;DHT22;55961;52.156;20.942;2023-05-28T10:36:13;26.10;30.40
68924;DHT22;55961;52.156;20.942;2023-05-28T10:38:58;26.20;29.40
68924;DHT22;55961;52.156;20.942;2023-05-28T10:41:26;26.20;29.30
68924;DHT22;55961;52.156;20.942;2023-05-28T10:44:05;26.20;28.80
68924;DHT22;55961;52.156;20.942;2023-05-28T10:46:38;26.30;27.90
68924;DHT22;55961;52.156;20.942;2023-05-28T10:49:17;26.40;27.60
68924;DHT22;55961;52.156;20.942;2023-05-28T10:52:01;26.50;28.10
68924;DHT22;55961;52.156;20.942;2023-05-28T10:57:15;26.90;28.60
68924;DHT22;55961;52.156;20.942;2023-05-28T11:02:26;27.20;27.80
68924;DHT22;55961;52.156;20.942;2023-05-28T11:04:56;27.30;28.30
68924;DHT22;55961;52.156;20.942;2023-05-28T11:07:36;27.30;28.20
68924;DHT22;55961;52.156;20.942;2023-05-28T11:10:15;27.30;27.90
68924;DHT22;55961;52.156;20.942;2023-05-28T11:12:43;27.10;28.10
68924;DHT22;55961;52.156;20.942;2023-05-28T11:15:11;27.00;28.10
68924;DHT22;55961;52.156;20.942;2023-05-28T11:17:42;27.10;28.50
68924;DHT22;55961;52.156;20.942;2023-05-28T11:22:48;27.30;28.40
68924;DHT22;55961;52.156;20.942;2023-05-28T11:25:14;27.40;28.70
68924;DHT22;55961;52.156;20.942;2023-05-28T11:27:40;27.50;28.20
68924;DHT22;55961;52.156;20.942;2023-05-28T11:30:09;27.60;29.10
68924;DHT22;55961;52.156;20.942;2023-05-28T11:32:37;27.80;28.20
68924;DHT22;55961;52.156;20.942;2023-05-28T11:35:03;28.00;27.90
68924;DHT22;55961;52.156;20.942;2023-05-28T11:37:32;28.10;27.50
68924;DHT22;55961;52.156;20.942;2023-05-28T11:39:59;28.20;27.20
68924;DHT22;55961;52.156;20.942;2023-05-28T11:42:28;28.20;27.50
68924;DHT22;55961;52.156;20.942;2023-05-28T11:44:58;28.30;28.10
68924;DHT22;55961;52.156;20.942;2023-05-28T11:47:24;28.40;28.00
68924;DHT22;55961;52.156;20.942;2023-05-28T11:49:52;28.30;27.80
68924;DHT22;55961;52.156;20.942;2023-05-28T11:52:22;28.20;27.60
68924;DHT22;55961;52.156;20.942;2023-05-28T11:54:53;28.10;27.30
68924;DHT22;55961;52.156;20.942;2023-05-28T11:57:21;27.90;27.80
68924;DHT22;55961;52.156;20.942;2023-05-28T12:00:04;27.90;28.40
68924;DHT22;55961;52.156;20.942;2023-05-28T12:02:47;28.00;28.10
68924;DHT22;55961;52.156;20.942;2023-05-28T12:05:14;28.10;28.20
68924;DHT22;55961;52.156;20.942;2023-05-28T12:10:16;28.30;27.80
68924;DHT22;55961;52.156;20.942;2023-05-28T12:15:14;28.30;27.60
68924;DHT22;55961;52.156;20.942;2023-05-28T12:17:42;28.40;28.10
68924;DHT22;55961;52.156;20.942;2023-05-28T12:22:42;28.50;27.10
68924;DHT22;55961;52.156;20.942;2023-05-28T12:25:08;28.50;27.40
68924;DHT22;55961;52.156;20.942;2023-05-28T12:27:35;28.60;27.70
68924;DHT22;55961;52.156;20.942;2023-05-28T12:30:02;28.60;27.40
68924;DHT22;55961;52.156;20.942;2023-05-28T12:32:29;28.70;27.70
68924;DHT22;55961;52.156;20.942;2023-05-28T12:34:54;28.90;27.80
68924;DHT22;55961;52.156;20.942;2023-05-28T12:37:23;29.00;27.00
68924;DHT22;55961;52.156;20.942;2023-05-28T12:39:50;29.10;27.20
68924;DHT22;55961;52.156;20.942;2023-05-28T12:42:16;29.20;27.10
68924;DHT22;55961;52.156;20.942;2023-05-28T12:44:42;29.30;26.50
68924;DHT22;55961;52.156;20.942;2023-05-28T12:47:09;29.40;26.10
68924;DHT22;55961;52.156;20.942;2023-05-28T12:49:34;29.40;26.30
68924;DHT22;55961;52.156;20.942;2023-05-28T12:52:01;29.40;26.30
68924;DHT22;55961;52.156;20.942;2023-05-28T12:54:27;29.40;26.80
68924;DHT22;55961;52.156;20.942;2023-05-28T12:56:53;29.40;26.80
68924;DHT22;55961;52.156;20.942;2023-05-28T12:59:27;29.40;26.80
68924;DHT22;55961;52.156;20.942;2023-05-28T13:01:54;29.30;26.70
68924;DHT22;55961;52.156;20.942;2023-05-28T13:04:21;29.20;27.10
68924;DHT22;55961;52.156;20.942;2023-05-28T13:06:48;29.10;27.00
68924;DHT22;55961;52.156;20.942;2023-05-28T13:09:14;29.00;26.80
68924;DHT22;55961;52.156;20.942;2023-05-28T13:11:42;28.90;27.30
68924;DHT22;55961;52.156;20.942;2023-05-28T13:14:08;29.00;27.10
68924;DHT22;55961;52.156;20.942;2023-05-28T13:16:38;28.90;27.00
68924;DHT22;55961;52.156;20.942;2023-05-28T13:19:04;28.80;27.30
68924;DHT22;55961;52.156;20.942;2023-05-28T13:21:31;28.80;27.30
68924;DHT22;55961;52.156;20.942;2023-05-28T13:23:58;28.70;26.80
68924;DHT22;55961;52.156;20.942;2023-05-28T13:26:26;28.70;27.20
68924;DHT22;55961;52.156;20.942;2023-05-28T13:28:52;28.70;27.20
68924;DHT22;55961;52.156;20.942;2023-05-28T13:31:18;28.70;27.10
68924;DHT22;55961;52.156;20.942;2023-05-28T13:33:44;28.50;27.70
68924;DHT22;55961;52.156;20.942;2023-05-28T13:36:11;28.40;27.40
68924;DHT22;55961;52.156;20.942;2023-05-28T13:38:37;28.30;27.20
68924;DHT22;55961;52.156;20.942;2023-05-28T13:41:03;28.20;27.90
68924;DHT22;55961;52.156;20.942;2023-05-28T13:43:32;28.30;28.20
68924;DHT22;55961;52.156;20.942;2023-05-28T13:45:59;28.30;28.20
68924;DHT22;55961;52.156;20.942;2023-05-28T13:48:25;28.30;27.50
68924;DHT22;55961;52.156;20.942;2023-05-28T13:50:51;28.30;27.30
68924;DHT22;55961;52.156;20.942;2023-05-28T13:53:17;28.30;28.00
68924;DHT22;55961;52.156;20.942;2023-05-28T13:55:43;28.20;27.90
68924;DHT22;55961;52.156;20.942;2023-05-28T13:58:09;28.20;27.90
68924;DHT22;55961;52.156;20.942;2023-05-28T14:00:35;28.10;27.40
68924;DHT22;55961;52.156;20.942;2023-05-28T14:03:00;28.00;28.30
68924;DHT22;55961;52.156;20.942;2023-05-28T14:05:27;28.00;27.90
68924;DHT22;55961;52.156;20.942;2023-05-28T14:07:52;27.90;28.10
68924;DHT22;55961;52.156;20.942;2023-05-28T14:10:19;27.80;27.80
68924;DHT22;55961;52.156;20.942;2023-05-28T14:12:50;27.80;27.60
68924;DHT22;55961;52.156;20.942;2023-05-28T14:15:17;27.80;27.40
68924;DHT22;55961;52.156;20.942;2023-05-28T14:17:42;27.80;27.60
68924;DHT22;55961;52.156;20.942;2023-05-28T14:20:09;27.70;27.80
68924;DHT22;55961;52.156;20.942;2023-05-28T14:22:36;27.70;28.30
68924;DHT22;55961;52.156;20.942;2023-05-28T14:25:02;27.60;28.00
68924;DHT22;55961;52.156;20.942;2023-05-28T14:27:28;27.60;27.80
68924;DHT22;55961;52.156;20.942;2023-05-28T14:29:55;27.60;27.80
68924;DHT22;55961;52.156;20.942;2023-05-28T14:32:20;27.60;28.40
68924;DHT22;55961;52.156;20.942;2023-05-28T14:34:46;27.60;27.90
68924;DHT22;55961;52.156;20.942;2023-05-28T14:37:12;27.50;27.80
68924;DHT22;55961;52.156;20.942;2023-05-28T14:39:38;27.50;27.90
68924;DHT22;55961;52.156;20.942;2023-05-28T14:42:04;27.40;27.90
68924;DHT22;55961;52.156;20.942;2023-05-28T14:44:31;27.40;28.60
68924;DHT22;55961;52.156;20.942;2023-05-28T14:46:57;27.40;28.80
68924;DHT22;55961;52.156;20.942;2023-05-28T14:49:23;27.40;28.20
68924;DHT22;55961;52.156;20.942;2023-05-28T14:51:56;27.40;28.30
68924;DHT22;55961;52.156;20.942;2023-05-28T14:54:23;27.40;29.30
68924;DHT22;55961;52.156;20.942;2023-05-28T14:56:49;27.50;29.20
68924;DHT22;55961;52.156;20.942;2023-05-28T14:59:15;27.60;29.20
68924;DHT22;55961;52.156;20.942;2023-05-28T15:01:41;27.60;28.70
68924;DHT22;55961;52.156;20.942;2023-05-28T15:04:07;27.70;28.60
68924;DHT22;55961;52.156;20.942;2023-05-28T15:06:33;27.70;28.20
68924;DHT22;55961;52.156;20.942;2023-05-28T15:08:59;27.80;28.40
68924;DHT22;55961;52.156;20.942;2023-05-28T15:11:25;27.90;28.00
68924;DHT22;55961;52.156;20.942;2023-05-28T15:13:52;27.90;28.20
68924;DHT22;55961;52.156;20.942;2023-05-28T15:16:20;28.00;28.00
68924;DHT22;55961;52.156;20.942;2023-05-28T15:18:46;28.00;28.40
68924;DHT22;55961;52.156;20.942;2023-05-28T15:21:11;28.10;27.90
68924;DHT22;55961;52.156;20.942;2023-05-28T15:23:38;28.10;27.20
68924;DHT22;55961;52.156;20.942;2023-05-28T15:26:04;28.10;27.30
68924;DHT22;55961;52.156;20.942;2023-05-28T15:28:30;28.10;28.60
68924;DHT22;55961;52.156;20.942;2023-05-28T15:30:56;28.00;27.30